Time;durP1;ratioP1;P1;durP2;ratioP2;P2;SDS_P1;SDS_P2;PMS_P1;PMS_P2;Temp;Humidity;BMP_temperature;BMP_pressure;BME280_temperature;BME280_humidity;BME280_pressure;Samples;Min_cycle;Max_cycle;Signal;HPM_P1;HPM_P2
2024/01/13 00:00:19;;;;;;;;;;;4.20;99.90;;;;;;7338073;19;109427;-65
2024/01/13 00:02:46;;;;;;;;;;;4.20;99.90;;;;;;7334767;19;110247;-65
2024/01/13 00:05:13;;;;;;;;;;;4.30;99.90;;;;;;7335153;19;109733;-67
2024/01/13 00:07:41;;;;;;;;;;;4.20;99.90;;;;;;7334680;19;109609;-67
2024/01/13 00:10:08;;;;;;;;;;;4.30;99.90;;;;;;7337810;19;108785;-65
2024/01/13 00:12:35;;;;;;;;;;;4.30;99.90;;;;;;7334757;19;110869;-65
2024/01/13 00:15:02;;;;;;;;;;;4.30;99.90;;;;;;7332386;19;109462;-66
2024/01/13 00:17:29;;;;;;;;;;;4.30;99.90;;;;;;7336214;19;108626;-69
2024/01/13 00:19:57;;;;;;;;;;;4.30;99.90;;;;;;7340497;19;109696;-67
2024/01/13 00:22:24;;;;;;;;;;;4.30;99.90;;;;;;7335484;19;109270;-65
2024/01/13 00:24:51;;;;;;;;;;;4.30;99.90;;;;;;7331152;19;109287;-65
2024/01/13 00:27:20;;;;;;;;;;;4.30;99.90;;;;;;7336679;19;108474;-65
2024/01/13 00:29:47;;;;;;;;;;;4.30;99.90;;;;;;7332587;19;110993;-67
2024/01/13 00:32:15;;;;;;;;;;;4.30;99.90;;;;;;7335603;19;109984;-65
2024/01/13 00:34:42;;;;;;;;;;;4.30;99.90;;;;;;7332231;19;110545;-65
2024/01/13 00:37:09;;;;;;;;;;;4.30;99.90;;;;;;7336401;19;109664;-65
2024/01/13 00:39:36;;;;;;;;;;;4.40;99.90;;;;;;7333448;19;109153;-65
2024/01/13 00:42:03;;;;;;;;;;;4.40;99.90;;;;;;7341686;19;110293;-65
2024/01/13 00:44:30;;;;;;;;;;;4.30;99.90;;;;;;7333585;19;109937;-65
2024/01/13 00:46:57;;;;;;;;;;;4.40;99.90;;;;;;7334314;19;108950;-65
2024/01/13 00:49:24;;;;;;;;;;;4.40;99.90;;;;;;7331062;19;110538;-66
2024/01/13 00:51:53;;;;;;;;;;;4.40;99.90;;;;;;7334192;19;108893;-67
2024/01/13 00:54:20;;;;;;;;;;;4.40;99.90;;;;;;7335729;19;108819;-65
2024/01/13 00:56:47;;;;;;;;;;;4.30;99.90;;;;;;7332002;19;111225;-65
2024/01/13 00:59:14;;;;;;;;;;;4.30;99.90;;;;;;7333451;19;110835;-65
2024/01/13 01:01:42;;;;;;;;;;;4.30;99.90;;;;;;7330253;19;109594;-67
2024/01/13 01:04:09;;;;;;;;;;;4.30;99.90;;;;;;7339248;19;109553;-68
2024/01/13 01:06:36;;;;;;;;;;;4.30;99.90;;;;;;7333650;19;110684;-67
2024/01/13 01:09:06;;;;;;;;;;;4.30;99.90;;;;;;7336229;19;109278;-66
2024/01/13 01:11:33;;;;;;;;;;;4.30;99.90;;;;;;7335649;19;109073;-65
2024/01/13 01:14:01;;;;;;;;;;;4.30;99.90;;;;;;7335271;19;108532;-66
2024/01/13 01:16:28;;;;;;;;;;;4.40;99.90;;;;;;7330537;19;108521;-65
2024/01/13 01:18:55;;;;;;;;;;;4.40;99.90;;;;;;7335100;19;109221;-66
2024/01/13 01:21:23;;;;;;;;;;;4.40;99.90;;;;;;7332127;19;109446;-65
2024/01/13 01:23:50;;;;;;;;;;;4.40;99.90;;;;;;7333526;19;111197;-72
2024/01/13 01:26:17;;;;;;;;;;;4.40;99.90;;;;;;7337019;19;110502;-64
2024/01/13 01:28:45;;;;;;;;;;;4.40;99.90;;;;;;7335058;19;111244;-65
2024/01/13 01:31:12;;;;;;;;;;;4.40;99.90;;;;;;7330326;19;109740;-66
2024/01/13 01:33:39;;;;;;;;;;;4.40;99.90;;;;;;7333354;19;109200;-65
2024/01/13 01:36:07;;;;;;;;;;;4.40;99.90;;;;;;7330749;19;109405;-65
2024/01/13 01:38:36;;;;;;;;;;;4.40;99.90;;;;;;7333138;19;110084;-65
2024/01/13 01:41:16;;;;;;;;;;;4.40;99.90;;;;;;7330510;19;109624;-65
2024/01/13 01:43:47;;;;;;;;;;;4.40;99.90;;;;;;7336371;19;108829;-65
2024/01/13 01:46:16;;;;;;;;;;;4.40;99.90;;;;;;7329122;19;110547;-64
2024/01/13 01:48:44;;;;;;;;;;;4.40;99.90;;;;;;7334255;19;108452;-65
2024/01/13 01:51:16;;;;;;;;;;;4.40;99.90;;;;;;7328972;19;109150;-64
2024/01/13 01:53:46;;;;;;;;;;;4.40;99.90;;;;;;7335460;19;108952;-64
2024/01/13 01:56:16;;;;;;;;;;;4.40;99.90;;;;;;7332348;19;108660;-64
2024/01/13 01:58:44;;;;;;;;;;;4.40;99.90;;;;;;7335345;19;109066;-64
2024/01/13 02:01:12;;;;;;;;;;;4.40;99.90;;;;;;7331490;19;108623;-65
2024/01/13 02:03:39;;;;;;;;;;;4.40;99.90;;;;;;7333479;19;111192;-64
2024/01/13 02:06:07;;;;;;;;;;;4.40;99.90;;;;;;7331201;19;109694;-64
2024/01/13 02:08:35;;;;;;;;;;;4.40;99.90;;;;;;7336987;19;110835;-64
2024/01/13 02:11:11;;;;;;;;;;;4.40;99.90;;;;;;7326172;19;109508;-66
2024/01/13 02:13:42;;;;;;;;;;;4.40;99.90;;;;;;7334078;19;109187;-70
2024/01/13 02:16:10;;;;;;;;;;;4.40;99.90;;;;;;7327927;19;110843;-74
2024/01/13 02:18:37;;;;;;;;;;;4.40;99.90;;;;;;7333595;19;109133;-67
2024/01/13 02:21:09;;;;;;;;;;;4.40;99.90;;;;;;7332157;19;109452;-68
2024/01/13 02:23:37;;;;;;;;;;;4.40;99.90;;;;;;7331795;19;111316;-68
2024/01/13 02:26:04;;;;;;;;;;;4.40;99.90;;;;;;7327546;19;110724;-69
2024/01/13 02:28:32;;;;;;;;;;;4.50;99.90;;;;;;7333154;19;108550;-69
2024/01/13 02:31:14;;;;;;;;;;;4.40;99.90;;;;;;7336156;19;108730;-65
2024/01/13 02:33:45;;;;;;;;;;;4.50;99.90;;;;;;7336616;19;108954;-65
2024/01/13 02:36:13;;;;;;;;;;;4.50;99.90;;;;;;7329121;19;110861;-65
2024/01/13 02:38:40;;;;;;;;;;;4.50;99.90;;;;;;7331639;19;109777;-65
2024/01/13 02:41:07;;;;;;;;;;;4.40;99.90;;;;;;7332787;19;108892;-64
2024/01/13 02:43:35;;;;;;;;;;;4.50;99.90;;;;;;7333609;19;109666;-65
2024/01/13 02:46:03;;;;;;;;;;;4.50;99.90;;;;;;7330134;19;110278;-64
2024/01/13 02:48:40;;;;;;;;;;;4.50;99.90;;;;;;7330383;19;109250;-64
2024/01/13 02:51:14;;;;;;;;;;;4.50;99.90;;;;;;7331779;19;109006;-65
2024/01/13 02:53:42;;;;;;;;;;;4.50;99.90;;;;;;7331542;19;109914;-63
2024/01/13 02:56:09;;;;;;;;;;;4.50;99.90;;;;;;7327759;19;109685;-65
2024/01/13 02:58:37;;;;;;;;;;;4.50;99.90;;;;;;7328398;19;109008;-65
2024/01/13 03:01:12;;;;;;;;;;;4.50;99.90;;;;;;7330272;19;109893;-65
2024/01/13 03:03:39;;;;;;;;;;;4.50;99.90;;;;;;7329832;19;110095;-65
2024/01/13 03:06:08;;;;;;;;;;;4.50;99.90;;;;;;7329723;19;109152;-65
2024/01/13 03:08:36;;;;;;;;;;;4.50;99.90;;;;;;7329782;19;108751;-65
2024/01/13 03:11:08;;;;;;;;;;;4.60;99.90;;;;;;7330250;19;109750;-65
2024/01/13 03:13:36;;;;;;;;;;;4.60;99.90;;;;;;7327363;19;109308;-65
2024/01/13 03:16:04;;;;;;;;;;;4.60;99.90;;;;;;7335151;19;108939;-66
2024/01/13 03:18:31;;;;;;;;;;;4.60;99.90;;;;;;7330787;19;109150;-65
2024/01/13 03:21:06;;;;;;;;;;;4.60;99.90;;;;;;7331650;19;108704;-65
2024/01/13 03:23:34;;;;;;;;;;;4.60;99.90;;;;;;7329028;19;108548;-65
2024/01/13 03:26:01;;;;;;;;;;;4.60;99.90;;;;;;7330020;19;109218;-65
2024/01/13 03:28:28;;;;;;;;;;;4.60;99.90;;;;;;7335364;19;108868;-65
2024/01/13 03:31:07;;;;;;;;;;;4.60;99.90;;;;;;7338145;19;108492;-65
2024/01/13 03:33:35;;;;;;;;;;;4.60;99.90;;;;;;7335305;19;109526;-65
2024/01/13 03:36:03;;;;;;;;;;;4.60;99.90;;;;;;7333775;19;108771;-64
2024/01/13 03:38:30;;;;;;;;;;;4.60;99.90;;;;;;7345882;19;109453;-65
2024/01/13 03:41:08;;;;;;;;;;;4.60;99.90;;;;;;7331977;19;109580;-66
2024/01/13 03:43:35;;;;;;;;;;;4.60;99.90;;;;;;7339313;19;108877;-65
2024/01/13 03:46:02;;;;;;;;;;;4.60;99.90;;;;;;7338097;19;110132;-65
2024/01/13 03:48:30;;;;;;;;;;;4.60;99.90;;;;;;7338270;19;109242;-65
2024/01/13 03:50:58;;;;;;;;;;;4.60;99.90;;;;;;7335474;19;109218;-65
2024/01/13 03:53:28;;;;;;;;;;;4.70;99.90;;;;;;7337501;19;111464;-65
2024/01/13 03:55:55;;;;;;;;;;;4.70;99.90;;;;;;7332934;19;111052;-65
2024/01/13 03:58:22;;;;;;;;;;;4.70;99.90;;;;;;7345077;19;108992;-65
2024/01/13 04:00:50;;;;;;;;;;;4.70;99.90;;;;;;7334930;19;109505;-65
2024/01/13 04:03:20;;;;;;;;;;;4.70;99.90;;;;;;7337028;19;108901;-65
2024/01/13 04:05:47;;;;;;;;;;;4.70;99.90;;;;;;7334527;19;110715;-65
2024/01/13 04:08:15;;;;;;;;;;;4.70;99.90;;;;;;7338212;19;108545;-65
2024/01/13 04:10:43;;;;;;;;;;;4.70;99.90;;;;;;7336172;19;109759;-65
2024/01/13 04:13:10;;;;;;;;;;;4.70;99.90;;;;;;7334877;19;111242;-69
2024/01/13 04:15:37;;;;;;;;;;;4.70;99.90;;;;;;7334340;19;109466;-65
2024/01/13 04:18:05;;;;;;;;;;;4.80;99.90;;;;;;7334329;19;111387;-65
2024/01/13 04:20:32;;;;;;;;;;;4.80;99.90;;;;;;7342096;19;109416;-65
2024/01/13 04:22:59;;;;;;;;;;;4.80;99.90;;;;;;7334685;19;110580;-67
2024/01/13 04:25:27;;;;;;;;;;;4.80;99.90;;;;;;7335596;19;109275;-66
2024/01/13 04:27:54;;;;;;;;;;;4.80;99.90;;;;;;7332338;19;108560;-65
2024/01/13 04:30:22;;;;;;;;;;;4.80;99.90;;;;;;7335590;19;108765;-67
2024/01/13 04:32:50;;;;;;;;;;;4.80;99.90;;;;;;7333870;19;110115;-66
2024/01/13 04:35:18;;;;;;;;;;;4.80;99.90;;;;;;7334127;19;109833;-65
2024/01/13 04:37:45;;;;;;;;;;;4.80;99.90;;;;;;7333549;19;110351;-65
2024/01/13 04:40:12;;;;;;;;;;;4.80;99.90;;;;;;7331520;19;109515;-65
2024/01/13 04:42:39;;;;;;;;;;;4.80;99.90;;;;;;7340093;19;111021;-65
2024/01/13 04:45:06;;;;;;;;;;;4.90;99.90;;;;;;7334752;19;109423;-65
2024/01/13 04:47:34;;;;;;;;;;;4.80;99.90;;;;;;7334173;19;109052;-65
2024/01/13 04:50:02;;;;;;;;;;;4.80;99.90;;;;;;7334122;19;109640;-65
2024/01/13 04:52:30;;;;;;;;;;;4.80;99.90;;;;;;7331832;19;109649;-65
2024/01/13 04:54:57;;;;;;;;;;;4.80;99.90;;;;;;7334196;19;109240;-65
2024/01/13 04:57:24;;;;;;;;;;;4.80;99.90;;;;;;7331989;19;109150;-65
2024/01/13 04:59:51;;;;;;;;;;;4.90;99.90;;;;;;7333464;19;109148;-65
2024/01/13 05:02:18;;;;;;;;;;;4.80;99.90;;;;;;7328875;19;110804;-64
2024/01/13 05:04:46;;;;;;;;;;;4.80;99.90;;;;;;7335301;19;109366;-66
2024/01/13 05:07:13;;;;;;;;;;;4.90;99.90;;;;;;7330141;19;108814;-65
2024/01/13 05:09:40;;;;;;;;;;;4.90;99.90;;;;;;7332257;19;109334;-65
2024/01/13 05:12:07;;;;;;;;;;;4.90;99.90;;;;;;7328518;19;110028;-65
2024/01/13 05:14:34;;;;;;;;;;;4.90;99.90;;;;;;7329046;19;111927;-65
2024/01/13 05:17:04;;;;;;;;;;;4.90;99.90;;;;;;7328891;19;109521;-65
2024/01/13 05:19:32;;;;;;;;;;;4.90;99.90;;;;;;7335135;19;110259;-65
2024/01/13 05:21:59;;;;;;;;;;;4.90;99.90;;;;;;7333812;19;108762;-65
2024/01/13 05:24:26;;;;;;;;;;;4.90;99.90;;;;;;7331662;19;109112;-65
2024/01/13 05:26:54;;;;;;;;;;;4.90;99.90;;;;;;7338700;19;110078;-65
2024/01/13 05:29:22;;;;;;;;;;;4.90;99.90;;;;;;7330939;19;110115;-64
2024/01/13 05:31:49;;;;;;;;;;;4.90;99.90;;;;;;7329150;19;109146;-64
2024/01/13 05:34:16;;;;;;;;;;;4.90;99.90;;;;;;7334620;19;109305;-65
2024/01/13 05:36:45;;;;;;;;;;;4.90;99.90;;;;;;7332189;19;110133;-64
2024/01/13 05:39:12;;;;;;;;;;;5.00;99.90;;;;;;7332254;19;109640;-64
2024/01/13 05:41:40;;;;;;;;;;;4.90;99.90;;;;;;7333923;19;109142;-67
2024/01/13 05:44:07;;;;;;;;;;;4.90;99.90;;;;;;7331836;19;110402;-65
2024/01/13 05:46:35;;;;;;;;;;;4.90;99.90;;;;;;7332149;19;109093;-65
2024/01/13 05:49:02;;;;;;;;;;;4.90;99.90;;;;;;7337187;19;110178;-67
2024/01/13 05:51:29;;;;;;;;;;;4.90;99.90;;;;;;7329466;19;111791;-64
2024/01/13 05:53:57;;;;;;;;;;;4.90;99.90;;;;;;7331542;19;109290;-65
2024/01/13 05:56:24;;;;;;;;;;;4.90;99.90;;;;;;7330930;19;110972;-65
2024/01/13 05:58:52;;;;;;;;;;;4.90;99.90;;;;;;7333165;19;110253;-65
2024/01/13 06:01:19;;;;;;;;;;;4.90;99.90;;;;;;7330040;19;110301;-65
2024/01/13 06:03:46;;;;;;;;;;;4.90;99.90;;;;;;7331724;19;110367;-65
2024/01/13 06:06:13;;;;;;;;;;;4.90;99.90;;;;;;7332338;19;111141;-65
2024/01/13 06:08:41;;;;;;;;;;;4.90;99.90;;;;;;7336550;19;108639;-68
2024/01/13 06:11:08;;;;;;;;;;;4.90;99.90;;;;;;7332461;19;109116;-76
2024/01/13 06:13:35;;;;;;;;;;;4.90;99.90;;;;;;7332151;19;111036;-74
2024/01/13 06:16:02;;;;;;;;;;;4.90;99.90;;;;;;7331267;19;110639;-67
2024/01/13 06:18:29;;;;;;;;;;;4.90;99.90;;;;;;7332629;19;110494;-67
2024/01/13 06:20:56;;;;;;;;;;;4.90;99.90;;;;;;7331861;19;109276;-64
2024/01/13 06:23:24;;;;;;;;;;;4.90;99.90;;;;;;7331929;19;109350;-67
2024/01/13 06:25:51;;;;;;;;;;;4.90;99.90;;;;;;7330310;19;108812;-65
2024/01/13 06:28:18;;;;;;;;;;;4.90;99.90;;;;;;7330203;19;109933;-66
2024/01/13 06:30:45;;;;;;;;;;;4.90;99.90;;;;;;7337574;19;109153;-66
2024/01/13 06:33:12;;;;;;;;;;;4.90;99.90;;;;;;7329830;19;109514;-65
2024/01/13 06:35:40;;;;;;;;;;;4.90;99.90;;;;;;7331826;19;109512;-65
2024/01/13 06:38:07;;;;;;;;;;;4.90;99.90;;;;;;7330744;19;109159;-65
2024/01/13 06:40:34;;;;;;;;;;;4.90;99.90;;;;;;7332776;19;108320;-65
2024/01/13 06:43:01;;;;;;;;;;;4.90;99.90;;;;;;7328282;19;109004;-65
2024/01/13 06:45:28;;;;;;;;;;;4.90;99.90;;;;;;7331410;19;110255;-65
2024/01/13 06:47:55;;;;;;;;;;;4.90;99.90;;;;;;7329576;19;108937;-65
2024/01/13 06:50:25;;;;;;;;;;;4.90;99.90;;;;;;7330817;19;108772;-65
2024/01/13 06:53:03;;;;;;;;;;;4.90;99.90;;;;;;7335426;19;109292;-64
2024/01/13 06:55:30;;;;;;;;;;;4.90;99.90;;;;;;7331057;19;110489;-64
2024/01/13 06:57:58;;;;;;;;;;;4.90;99.90;;;;;;7329355;19;109788;-65
2024/01/13 07:00:25;;;;;;;;;;;4.90;99.90;;;;;;7328130;19;108512;-65
2024/01/13 07:02:52;;;;;;;;;;;4.90;99.90;;;;;;7329754;19;109313;-65
2024/01/13 07:05:19;;;;;;;;;;;4.90;99.90;;;;;;7329058;19;108938;-65
2024/01/13 07:07:47;;;;;;;;;;;4.90;99.90;;;;;;7331744;19;110720;-65
2024/01/13 07:10:14;;;;;;;;;;;4.90;99.90;;;;;;7329873;19;109265;-65
2024/01/13 07:12:41;;;;;;;;;;;4.90;99.90;;;;;;7330491;19;109141;-65
2024/01/13 07:15:08;;;;;;;;;;;4.90;99.90;;;;;;7334011;19;108633;-65
2024/01/13 07:17:35;;;;;;;;;;;4.90;99.90;;;;;;7333391;19;109220;-64
2024/01/13 07:20:03;;;;;;;;;;;4.90;99.90;;;;;;7330777;19;109581;-64
2024/01/13 07:22:30;;;;;;;;;;;4.90;99.90;;;;;;7328422;19;110002;-65
2024/01/13 07:24:57;;;;;;;;;;;4.90;99.90;;;;;;7328273;19;110319;-64
2024/01/13 07:27:24;;;;;;;;;;;4.90;99.90;;;;;;7330554;19;110711;-64
2024/01/13 07:29:51;;;;;;;;;;;4.80;99.90;;;;;;7330069;19;108861;-64
2024/01/13 07:32:30;;;;;;;;;;;4.90;99.90;;;;;;7328595;19;109622;-70
2024/01/13 07:34:57;;;;;;;;;;;4.90;99.90;;;;;;7330192;19;108874;-64
2024/01/13 07:37:25;;;;;;;;;;;4.90;99.90;;;;;;7332835;19;108829;-65
2024/01/13 07:39:52;;;;;;;;;;;4.90;99.90;;;;;;7326922;19;109556;-64
2024/01/13 07:42:20;;;;;;;;;;;4.90;99.90;;;;;;7327876;19;111088;-64
2024/01/13 07:44:47;;;;;;;;;;;4.90;99.90;;;;;;7330532;19;110177;-64
2024/01/13 07:47:14;;;;;;;;;;;4.90;99.90;;;;;;7325813;19;108983;-65
2024/01/13 07:49:41;;;;;;;;;;;4.90;99.90;;;;;;7331602;19;108948;-64
2024/01/13 07:52:10;;;;;;;;;;;4.90;99.90;;;;;;7325812;19;110189;-64
2024/01/13 07:54:37;;;;;;;;;;;4.90;99.90;;;;;;7329593;19;110124;-64
2024/01/13 07:57:05;;;;;;;;;;;4.90;99.90;;;;;;7325607;19;109176;-65
2024/01/13 07:59:32;;;;;;;;;;;4.90;99.90;;;;;;7334467;19;111188;-64
2024/01/13 08:01:59;;;;;;;;;;;4.90;99.90;;;;;;7324620;19;109467;-64
2024/01/13 08:04:26;;;;;;;;;;;4.90;99.90;;;;;;7328285;19;110382;-64
2024/01/13 08:06:54;;;;;;;;;;;4.90;99.90;;;;;;7327460;19;111861;-64
2024/01/13 08:09:22;;;;;;;;;;;4.90;99.90;;;;;;7326730;19;109395;-64
2024/01/13 08:11:50;;;;;;;;;;;4.90;99.90;;;;;;7325249;19;111885;-64
2024/01/13 08:14:20;;;;;;;;;;;4.90;99.90;;;;;;7330169;19;109290;-64
2024/01/13 08:16:47;;;;;;;;;;;4.90;99.90;;;;;;7333064;19;110360;-65
2024/01/13 08:19:14;;;;;;;;;;;4.90;99.90;;;;;;7339275;19;110070;-65
2024/01/13 08:21:41;;;;;;;;;;;4.90;99.90;;;;;;7334928;19;108587;-66
2024/01/13 08:24:09;;;;;;;;;;;4.90;99.90;;;;;;7332783;19;109740;-72
2024/01/13 08:26:38;;;;;;;;;;;5.00;99.90;;;;;;7329778;19;111716;-65
2024/01/13 08:34:17;;;;;;;;;;;5.00;99.90;;;;;;7337532;19;110989;-64
2024/01/13 08:36:44;;;;;;;;;;;5.00;99.90;;;;;;7339591;19;112949;-94
2024/01/13 08:39:11;;;;;;;;;;;5.00;99.90;;;;;;7344792;19;110467;-96
2024/01/13 08:41:39;;;;;;;;;;;4.90;99.90;;;;;;7358110;19;108413;-93
2024/01/13 08:44:10;;;;;;;;;;;4.90;99.90;;;;;;7341802;19;112717;-95
2024/01/13 08:46:37;;;;;;;;;;;5.00;99.90;;;;;;7343119;19;108160;-95
2024/01/13 08:49:05;;;;;;;;;;;4.90;99.90;;;;;;7342952;19;109780;-90
2024/01/13 08:51:33;;;;;;;;;;;4.90;99.90;;;;;;7340290;19;109400;-94
2024/01/13 08:54:06;;;;;;;;;;;4.90;99.90;;;;;;7340559;19;108579;-95
2024/01/13 08:56:36;;;;;;;;;;;4.90;99.90;;;;;;7338788;19;108947;-95
2024/01/13 08:59:06;;;;;;;;;;;4.90;99.90;;;;;;7339268;19;112850;-96
2024/01/13 09:01:38;;;;;;;;;;;5.00;99.90;;;;;;7342007;19;108490;-95
2024/01/13 09:04:07;;;;;;;;;;;5.00;99.90;;;;;;7343632;19;112421;-94
2024/01/13 09:06:36;;;;;;;;;;;5.00;99.90;;;;;;7346317;19;109347;-96
2024/01/13 09:09:04;;;;;;;;;;;5.00;99.90;;;;;;7334678;19;109932;-65
2024/01/13 09:11:33;;;;;;;;;;;5.00;99.90;;;;;;7328788;19;110723;-67
2024/01/13 09:14:10;;;;;;;;;;;5.00;99.90;;;;;;7331385;19;108785;-65
2024/01/13 09:16:39;;;;;;;;;;;5.00;99.90;;;;;;7330552;19;109223;-65
2024/01/13 09:19:08;;;;;;;;;;;5.00;99.90;;;;;;7333999;19;110025;-65
2024/01/13 09:21:37;;;;;;;;;;;5.00;99.90;;;;;;7334905;19;108850;-65
2024/01/13 09:24:10;;;;;;;;;;;5.10;99.90;;;;;;7331185;19;109732;-65
2024/01/13 09:26:44;;;;;;;;;;;5.00;99.90;;;;;;7336385;19;110082;-65
2024/01/13 09:29:16;;;;;;;;;;;5.00;99.90;;;;;;7330378;19;109074;-65
2024/01/13 09:31:45;;;;;;;;;;;5.00;99.90;;;;;;7333397;19;111578;-65
2024/01/13 09:34:13;;;;;;;;;;;5.00;99.90;;;;;;7330052;19;108873;-65
2024/01/13 09:36:42;;;;;;;;;;;5.00;99.90;;;;;;7335553;19;109553;-64
2024/01/13 09:39:16;;;;;;;;;;;5.00;99.90;;;;;;7332774;19;110452;-65
2024/01/13 09:41:43;;;;;;;;;;;5.00;99.90;;;;;;7331873;19;108484;-67
2024/01/13 09:44:11;;;;;;;;;;;5.10;99.90;;;;;;7335408;19;109041;-65
2024/01/13 09:46:38;;;;;;;;;;;5.00;99.90;;;;;;7332304;19;110113;-65
2024/01/13 09:49:08;;;;;;;;;;;5.10;99.90;;;;;;7340179;19;108772;-65
2024/01/13 09:51:36;;;;;;;;;;;5.00;99.90;;;;;;7329558;19;110953;-65
2024/01/13 09:54:08;;;;;;;;;;;5.10;99.90;;;;;;7334635;19;108923;-65
2024/01/13 09:56:39;;;;;;;;;;;5.10;99.90;;;;;;7332458;19;110026;-65
2024/01/13 09:59:06;;;;;;;;;;;5.10;99.90;;;;;;7335003;19;110013;-65
2024/01/13 10:01:33;;;;;;;;;;;5.10;99.90;;;;;;7329468;19;109624;-65
2024/01/13 10:04:01;;;;;;;;;;;5.10;99.90;;;;;;7333669;19;109177;-65
2024/01/13 10:06:31;;;;;;;;;;;5.10;99.90;;;;;;7329916;19;109346;-65
2024/01/13 10:08:58;;;;;;;;;;;5.10;99.90;;;;;;7330077;19;108773;-68
2024/01/13 10:11:39;;;;;;;;;;;5.10;99.90;;;;;;7335536;19;109028;-68
2024/01/13 10:14:12;;;;;;;;;;;5.00;99.90;;;;;;7331862;19;108733;-68
2024/01/13 10:16:40;;;;;;;;;;;5.00;99.90;;;;;;7332486;19;111279;-69
2024/01/13 10:19:08;;;;;;;;;;;4.90;99.90;;;;;;7330554;19;110903;-71
2024/01/13 10:21:36;;;;;;;;;;;4.90;99.90;;;;;;7334339;19;109362;-69
2024/01/13 10:24:06;;;;;;;;;;;4.90;99.90;;;;;;7332629;19;110392;-69
2024/01/13 10:26:34;;;;;;;;;;;4.80;99.90;;;;;;7331608;19;109852;-67
2024/01/13 10:29:01;;;;;;;;;;;4.90;99.90;;;;;;7333932;19;108641;-68
2024/01/13 10:31:30;;;;;;;;;;;4.90;99.90;;;;;;7340592;19;109090;-74
2024/01/13 10:34:09;;;;;;;;;;;4.90;99.90;;;;;;7331236;19;108520;-73
2024/01/13 10:36:36;;;;;;;;;;;4.90;99.90;;;;;;7324462;19;109014;-72
2024/01/13 10:39:04;;;;;;;;;;;4.80;99.90;;;;;;7328760;19;109505;-77
2024/01/13 10:41:34;;;;;;;;;;;4.80;99.90;;;;;;7333741;19;108842;-68
2024/01/13 10:44:07;;;;;;;;;;;4.80;99.90;;;;;;7332000;19;108969;-71
2024/01/13 10:46:37;;;;;;;;;;;4.80;99.90;;;;;;7331835;19;110172;-71
2024/01/13 10:49:10;;;;;;;;;;;4.80;99.90;;;;;;7330883;19;108663;-70
2024/01/13 10:51:47;;;;;;;;;;;4.80;99.90;;;;;;7333896;19;111051;-68
2024/01/13 10:54:16;;;;;;;;;;;4.80;99.90;;;;;;7336289;19;110177;-68
2024/01/13 10:56:44;;;;;;;;;;;4.80;99.90;;;;;;7331188;19;109645;-68
2024/01/13 10:59:12;;;;;;;;;;;4.90;99.90;;;;;;7329161;19;109794;-68
2024/01/13 11:01:39;;;;;;;;;;;4.80;99.90;;;;;;7333017;19;109867;-68
2024/01/13 11:04:11;;;;;;;;;;;4.80;99.90;;;;;;7329211;19;121643;-68
2024/01/13 11:06:38;;;;;;;;;;;4.90;99.90;;;;;;7332267;19;109500;-68
2024/01/13 11:09:09;;;;;;;;;;;4.90;99.90;;;;;;7330778;19;109763;-68
2024/01/13 11:11:41;;;;;;;;;;;4.90;99.90;;;;;;7330380;19;109435;-68
2024/01/13 11:14:23;;;;;;;;;;;5.00;99.90;;;;;;7332241;19;109851;-68
2024/01/13 11:16:50;;;;;;;;;;;4.90;99.90;;;;;;7334447;19;110591;-68
2024/01/13 11:19:17;;;;;;;;;;;5.00;99.90;;;;;;7328511;19;110040;-68
2024/01/13 11:21:48;;;;;;;;;;;5.00;99.90;;;;;;7330497;19;110268;-68
2024/01/13 11:24:17;;;;;;;;;;;5.00;99.90;;;;;;7333853;19;109158;-68
2024/01/13 11:26:48;;;;;;;;;;;5.10;99.90;;;;;;7331346;19;109693;-68
2024/01/13 11:29:20;;;;;;;;;;;5.10;99.90;;;;;;7328419;19;109538;-68
2024/01/13 11:31:53;;;;;;;;;;;5.00;99.90;;;;;;7332223;19;108963;-68
2024/01/13 11:34:21;;;;;;;;;;;5.00;99.90;;;;;;7329539;19;110297;-68
2024/01/13 11:36:53;;;;;;;;;;;5.00;99.90;;;;;;7330744;19;109456;-68
2024/01/13 11:39:20;;;;;;;;;;;5.10;99.90;;;;;;7330575;19;109197;-68
2024/01/13 11:41:52;;;;;;;;;;;5.00;99.90;;;;;;7328899;19;108509;-68
2024/01/13 11:44:22;;;;;;;;;;;5.00;99.90;;;;;;7329740;19;108749;-68
2024/01/13 11:47:01;;;;;;;;;;;5.00;99.90;;;;;;7327666;19;110534;-68
2024/01/13 11:49:30;;;;;;;;;;;5.00;99.90;;;;;;7337735;19;109800;-67
2024/01/13 11:52:04;;;;;;;;;;;5.00;99.90;;;;;;7333855;19;109323;-68
2024/01/13 11:54:32;;;;;;;;;;;5.00;99.90;;;;;;7337464;19;109219;-71
2024/01/13 11:57:01;;;;;;;;;;;5.00;99.90;;;;;;7335743;19;108717;-68
2024/01/13 11:59:29;;;;;;;;;;;5.00;99.90;;;;;;7337425;19;108849;-68
2024/01/13 12:01:56;;;;;;;;;;;5.00;99.90;;;;;;7342025;19;109576;-74
2024/01/13 12:04:24;;;;;;;;;;;5.00;99.90;;;;;;7336077;19;109014;-70
2024/01/13 12:06:53;;;;;;;;;;;5.00;99.90;;;;;;7327235;19;110794;-69
2024/01/13 12:09:22;;;;;;;;;;;5.00;99.90;;;;;;7339272;19;108649;-68
2024/01/13 12:11:59;;;;;;;;;;;5.00;99.90;;;;;;7335862;19;109605;-68
2024/01/13 12:14:26;;;;;;;;;;;4.90;99.90;;;;;;7343518;19;109160;-90
2024/01/13 12:16:58;;;;;;;;;;;4.90;99.90;;;;;;7339597;19;108512;-89
2024/01/13 12:19:26;;;;;;;;;;;4.90;99.90;;;;;;7347386;19;108784;-89
2024/01/13 12:21:54;;;;;;;;;;;4.90;99.90;;;;;;7344650;19;110343;-89
2024/01/13 12:24:28;;;;;;;;;;;4.90;99.90;;;;;;7348992;19;108590;-89
2024/01/13 12:26:56;;;;;;;;;;;4.90;99.90;;;;;;7342847;19;110884;-89
2024/01/13 12:29:29;;;;;;;;;;;4.90;99.90;;;;;;7339400;19;109858;-90
2024/01/13 12:31:58;;;;;;;;;;;5.00;99.90;;;;;;7343787;19;109610;-89
2024/01/13 12:34:26;;;;;;;;;;;5.10;99.90;;;;;;7345389;19;110048;-89
2024/01/13 12:36:54;;;;;;;;;;;5.10;99.90;;;;;;7342967;19;109010;-91
2024/01/13 12:39:22;;;;;;;;;;;5.20;99.90;;;;;;7341575;19;109708;-91
2024/01/13 12:41:50;;;;;;;;;;;5.20;99.90;;;;;;7344424;19;110544;-88
2024/01/13 12:44:25;;;;;;;;;;;5.30;99.90;;;;;;7349834;19;111242;-90
2024/01/13 12:46:54;;;;;;;;;;;5.20;99.90;;;;;;7339939;19;110279;-89
2024/01/13 12:49:21;;;;;;;;;;;5.30;99.90;;;;;;7339465;19;109478;-90
2024/01/13 12:51:52;;;;;;;;;;;5.30;99.90;;;;;;7341712;19;110041;-91
2024/01/13 12:54:19;;;;;;;;;;;5.30;99.90;;;;;;7340730;19;111710;-90
2024/01/13 12:56:47;;;;;;;;;;;5.30;99.90;;;;;;7340862;19;109143;-89
2024/01/13 12:59:15;;;;;;;;;;;5.30;99.90;;;;;;7341297;19;110411;-89
2024/01/13 13:01:43;;;;;;;;;;;5.30;99.90;;;;;;7340680;19;112833;-90
2024/01/13 13:04:10;;;;;;;;;;;5.30;99.90;;;;;;7342160;19;108674;-89
2024/01/13 13:06:38;;;;;;;;;;;5.40;99.90;;;;;;7350771;19;108437;-89
2024/01/13 13:09:09;;;;;;;;;;;5.30;99.90;;;;;;7342271;19;108471;-89
2024/01/13 13:11:41;;;;;;;;;;;5.30;99.90;;;;;;7341771;19;112166;-92
2024/01/13 13:14:08;;;;;;;;;;;5.30;99.90;;;;;;7342380;19;110374;-90
2024/01/13 13:16:35;;;;;;;;;;;5.30;99.90;;;;;;7340181;19;108732;-90
2024/01/13 13:19:06;;;;;;;;;;;5.30;99.90;;;;;;7342312;19;110442;-90
2024/01/13 13:21:34;;;;;;;;;;;5.30;99.90;;;;;;7341231;19;109133;-89
2024/01/13 13:24:03;;;;;;;;;;;5.30;99.90;;;;;;7343876;19;108430;-88
2024/01/13 13:26:30;;;;;;;;;;;5.30;99.90;;;;;;7341448;19;109492;-91
2024/01/13 13:28:57;;;;;;;;;;;5.30;99.90;;;;;;7349242;19;109485;-90
2024/01/13 13:31:24;;;;;;;;;;;5.30;99.90;;;;;;7342637;19;109605;-89
2024/01/13 13:33:51;;;;;;;;;;;5.30;99.90;;;;;;7338194;19;108949;-90
2024/01/13 13:36:19;;;;;;;;;;;5.30;99.90;;;;;;7339838;19;109217;-89
2024/01/13 13:38:46;;;;;;;;;;;5.30;99.90;;;;;;7340619;19;108419;-89
2024/01/13 13:41:13;;;;;;;;;;;5.30;99.90;;;;;;7340198;19;111975;-89
2024/01/13 13:43:43;;;;;;;;;;;5.30;99.90;;;;;;7343905;19;108701;-91
2024/01/13 13:46:10;;;;;;;;;;;5.30;99.90;;;;;;7339422;19;109097;-90
2024/01/13 13:48:38;;;;;;;;;;;5.30;99.90;;;;;;7340252;19;110381;-90
2024/01/13 13:51:08;;;;;;;;;;;5.20;99.90;;;;;;7349254;19;109148;-90
2024/01/13 13:53:35;;;;;;;;;;;5.20;99.90;;;;;;7342874;19;111017;-91
2024/01/13 13:56:02;;;;;;;;;;;5.20;99.90;;;;;;7343788;19;108700;-90
2024/01/13 13:58:30;;;;;;;;;;;5.20;99.90;;;;;;7341122;19;110906;-90
2024/01/13 14:00:57;;;;;;;;;;;5.10;99.90;;;;;;7339663;19;113018;-90
2024/01/13 14:03:24;;;;;;;;;;;5.10;99.90;;;;;;7341624;19;108623;-91
2024/01/13 14:05:52;;;;;;;;;;;5.10;99.90;;;;;;7342877;19;108864;-90
2024/01/13 14:08:19;;;;;;;;;;;5.20;99.90;;;;;;7341172;19;109494;-91
2024/01/13 14:10:46;;;;;;;;;;;5.10;99.90;;;;;;7342159;19;108428;-90
2024/01/13 14:13:14;;;;;;;;;;;5.10;99.90;;;;;;7343883;19;109187;-90
2024/01/13 14:15:41;;;;;;;;;;;5.10;99.90;;;;;;7342009;19;108580;-90
2024/01/13 14:18:08;;;;;;;;;;;5.10;99.90;;;;;;7339120;19;110460;-90
2024/01/13 14:20:37;;;;;;;;;;;5.10;99.90;;;;;;7343846;19;110476;-91
2024/01/13 14:23:04;;;;;;;;;;;5.10;99.90;;;;;;7345906;19;108305;-91
2024/01/13 14:25:32;;;;;;;;;;;5.00;99.90;;;;;;7342605;19;108584;-91
2024/01/13 14:27:59;;;;;;;;;;;5.10;99.90;;;;;;7342998;19;110390;-91